createdAt,value
2023-05-19T00:00:26.368Z,0.00
2023-05-19T00:01:26.354Z,0.00
2023-05-19T00:02:26.439Z,0.00
2023-05-19T00:03:26.375Z,0.00
2023-05-19T00:04:26.315Z,0.00
2023-05-19T00:05:26.318Z,0.00
2023-05-19T00:06:26.288Z,0.00
2023-05-19T00:07:26.328Z,0.00
2023-05-19T00:08:26.261Z,0.00
2023-05-19T00:09:26.248Z,0.00
2023-05-19T00:10:26.236Z,0.00
2023-05-19T00:11:26.229Z,0.00
2023-05-19T00:12:26.224Z,0.00
2023-05-19T00:13:26.199Z,0.00
2023-05-19T00:14:26.215Z,0.00
2023-05-19T00:15:26.178Z,0.00
2023-05-19T00:16:26.232Z,0.00
2023-05-19T00:17:26.186Z,0.00
2023-05-19T00:18:26.134Z,0.00
2023-05-19T00:19:26.305Z,0.00
2023-05-19T00:20:26.119Z,0.00
2023-05-19T00:21:26.094Z,0.00
2023-05-19T00:22:26.079Z,0.00
2023-05-19T00:23:26.078Z,0.00
2023-05-19T00:24:26.054Z,0.00
2023-05-19T00:25:26.046Z,0.00
2023-05-19T00:26:26.027Z,0.00
2023-05-19T00:27:26.018Z,0.00
2023-05-19T00:28:26.007Z,0.00
2023-05-19T00:29:25.992Z,0.00
2023-05-19T00:30:26.003Z,0.00
2023-05-19T00:31:26.034Z,0.00
2023-05-19T00:32:25.973Z,0.00
2023-05-19T00:33:25.938Z,0.00
2023-05-19T00:34:25.930Z,0.00
2023-05-19T00:35:25.910Z,0.00
2023-05-19T00:36:25.906Z,0.00
2023-05-19T00:37:25.887Z,0.00
2023-05-19T00:38:25.882Z,0.00
2023-05-19T00:39:25.872Z,0.00
2023-05-19T00:40:25.856Z,0.00
2023-05-19T00:41:25.836Z,0.00
2023-05-19T00:42:25.825Z,0.00
2023-05-19T00:43:25.809Z,0.00
2023-05-19T00:44:25.804Z,0.00
2023-05-19T00:45:25.788Z,0.00
2023-05-19T00:46:25.877Z,0.00
2023-05-19T00:47:25.789Z,0.00
2023-05-19T00:48:25.748Z,0.00
2023-05-19T00:49:25.733Z,0.00
2023-05-19T00:50:25.723Z,0.00
2023-05-19T00:51:25.716Z,0.00
2023-05-19T00:52:25.703Z,0.00
2023-05-19T00:53:25.694Z,0.00
2023-05-19T00:54:25.674Z,0.00
2023-05-19T00:55:25.657Z,0.00
2023-05-19T00:56:25.651Z,0.00
2023-05-19T00:57:25.632Z,0.00
2023-05-19T00:58:25.640Z,0.00
2023-05-19T00:59:25.603Z,0.00
2023-05-19T01:00:25.607Z,0.00
2023-05-19T01:01:25.592Z,0.00
2023-05-19T01:02:25.695Z,0.00
2023-05-19T01:03:25.655Z,0.00
2023-05-19T01:04:25.560Z,0.00
2023-05-19T01:05:25.538Z,0.00
2023-05-19T01:06:25.519Z,0.00
2023-05-19T01:07:25.508Z,0.00
2023-05-19T01:08:25.496Z,0.00
2023-05-19T01:09:25.482Z,0.00
2023-05-19T01:10:25.468Z,0.00
2023-05-19T01:11:25.456Z,0.00
2023-05-19T01:12:25.444Z,0.00
2023-05-19T01:13:25.431Z,0.00
2023-05-19T01:14:25.418Z,0.00
2023-05-19T01:15:25.407Z,0.00
2023-05-19T01:16:25.408Z,0.00
2023-05-19T01:17:25.433Z,0.00
2023-05-19T01:18:25.395Z,0.00
2023-05-19T01:19:25.600Z,0.00
2023-05-19T01:20:25.343Z,0.00
2023-05-19T01:21:25.331Z,0.00
2023-05-19T01:22:25.316Z,0.00
2023-05-19T01:23:25.307Z,0.00
2023-05-19T01:24:25.293Z,0.00
2023-05-19T01:25:25.289Z,0.00
2023-05-19T01:26:25.267Z,0.00
2023-05-19T01:27:25.254Z,0.00
2023-05-19T01:28:25.239Z,0.00
2023-05-19T01:29:25.226Z,0.00
2023-05-19T01:30:25.210Z,0.00
2023-05-19T01:31:25.262Z,0.00
2023-05-19T01:32:25.207Z,0.00
2023-05-19T01:33:25.181Z,0.00
2023-05-19T01:34:25.197Z,0.00
2023-05-19T01:35:25.158Z,0.00
2023-05-19T01:36:25.138Z,0.00
2023-05-19T01:37:25.124Z,0.00
2023-05-19T01:38:25.116Z,0.00
2023-05-19T01:39:25.104Z,0.00
2023-05-19T01:40:25.092Z,0.00
2023-05-19T01:41:25.079Z,0.00
2023-05-19T01:42:25.065Z,0.00
2023-05-19T01:43:25.050Z,0.00
2023-05-19T01:44:25.037Z,0.00
2023-05-19T01:45:25.023Z,0.00
2023-05-19T01:46:25.087Z,0.00
2023-05-19T01:47:25.028Z,0.00
2023-05-19T01:48:24.987Z,0.00
2023-05-19T01:49:24.972Z,0.00
2023-05-19T01:50:24.987Z,0.00
2023-05-19T01:51:24.949Z,0.00
2023-05-19T01:52:24.934Z,0.00
2023-05-19T01:53:24.919Z,0.00
2023-05-19T01:54:24.907Z,0.00
2023-05-19T01:55:24.891Z,0.00
2023-05-19T01:56:24.877Z,0.00
2023-05-19T01:57:24.871Z,0.00
2023-05-19T01:58:24.854Z,0.00
2023-05-19T02:00:24.830Z,0.00
2023-05-19T02:01:24.887Z,0.00
2023-05-19T02:02:24.826Z,0.00
2023-05-19T02:03:24.800Z,0.00
2023-05-19T02:04:24.863Z,0.00
2023-05-19T02:05:24.760Z,0.00
2023-05-19T02:06:24.780Z,0.00
2023-05-19T02:07:24.737Z,0.00
2023-05-19T02:08:24.741Z,0.00
2023-05-19T02:09:24.707Z,0.00
2023-05-19T02:10:24.704Z,0.00
2023-05-19T02:11:24.685Z,0.00
2023-05-19T02:12:24.668Z,0.00
2023-05-19T02:13:24.664Z,0.00
2023-05-19T02:14:24.641Z,0.00
2023-05-19T02:15:24.643Z,0.00
2023-05-19T02:16:24.759Z,0.00
2023-05-19T02:17:24.704Z,0.00
2023-05-19T02:18:24.596Z,0.00
2023-05-19T02:19:24.738Z,0.00
2023-05-19T02:20:24.582Z,0.00
2023-05-19T02:21:24.550Z,0.00
2023-05-19T02:22:24.558Z,0.00
2023-05-19T02:23:24.518Z,0.00
2023-05-19T02:24:24.507Z,0.00
2023-05-19T02:25:24.501Z,0.00
2023-05-19T02:26:24.493Z,0.00
2023-05-19T02:27:24.486Z,0.00
2023-05-19T02:28:24.461Z,0.00
2023-05-19T02:29:24.446Z,0.00
2023-05-19T02:30:24.430Z,0.00
2023-05-19T02:31:24.448Z,0.00
2023-05-19T02:32:24.416Z,0.00
2023-05-19T02:33:24.395Z,0.00
2023-05-19T02:34:24.376Z,0.00
2023-05-19T02:35:24.364Z,0.00
2023-05-19T02:36:24.362Z,0.00
2023-05-19T02:37:24.335Z,0.00
2023-05-19T02:38:24.353Z,0.00
2023-05-19T02:39:24.314Z,0.00
2023-05-19T02:40:24.310Z,0.00
2023-05-19T02:41:24.282Z,0.00
2023-05-19T02:42:24.279Z,0.00
2023-05-19T02:43:24.258Z,0.00
2023-05-19T02:44:24.247Z,0.00
2023-05-19T02:45:24.262Z,0.00
2023-05-19T02:46:24.280Z,0.00
2023-05-19T02:47:24.216Z,0.00
2023-05-19T02:48:24.192Z,0.00
2023-05-19T02:49:24.177Z,0.00
2023-05-19T02:50:24.166Z,0.00
2023-05-19T02:51:24.147Z,0.00
2023-05-19T02:52:24.136Z,0.00
2023-05-19T02:53:24.130Z,0.00
2023-05-19T02:54:24.146Z,0.00
2023-05-19T02:55:24.115Z,0.00
2023-05-19T02:56:24.100Z,0.00
2023-05-19T02:57:24.094Z,0.00
2023-05-19T02:58:24.063Z,0.00
2023-05-19T02:59:25.519Z,4.00
2023-05-19T03:00:24.040Z,4.00
2023-05-19T03:01:24.025Z,4.00
2023-05-19T03:02:24.001Z,0.00
2023-05-19T03:03:24.214Z,4.00
2023-05-19T03:04:23.979Z,4.00
2023-05-19T03:05:23.968Z,4.00
2023-05-19T03:06:23.953Z,4.00
2023-05-19T03:07:23.936Z,4.00
2023-05-19T03:08:23.928Z,8.00
2023-05-19T03:09:23.928Z,8.00
2023-05-19T03:10:23.928Z,8.00
2023-05-19T03:11:23.887Z,8.00
2023-05-19T03:12:23.877Z,16.00
2023-05-19T03:13:23.878Z,12.00
2023-05-19T03:14:24.116Z,16.00
2023-05-19T03:15:23.837Z,20.00
2023-05-19T03:16:23.858Z,24.00
2023-05-19T03:17:23.887Z,28.00
2023-05-19T03:18:23.857Z,32.00
2023-05-19T03:19:23.845Z,36.00
2023-05-19T03:20:23.773Z,40.00
2023-05-19T03:21:23.758Z,44.00
2023-05-19T03:22:23.748Z,52.00
2023-05-19T03:23:23.733Z,60.00
2023-05-19T03:24:23.725Z,64.00
2023-05-19T03:25:23.710Z,72.00
2023-05-19T03:26:23.723Z,84.00
2023-05-19T03:27:23.687Z,92.00
2023-05-19T03:28:23.690Z,100.00
2023-05-19T03:29:23.666Z,116.00
2023-05-19T03:30:23.651Z,124.00
2023-05-19T03:31:23.636Z,140.00
2023-05-19T03:32:23.700Z,156.00
2023-05-19T03:33:23.855Z,168.00
2023-05-19T03:34:23.601Z,184.00
2023-05-19T03:35:23.587Z,204.00
2023-05-19T03:36:23.575Z,228.00
2023-05-19T03:37:23.573Z,248.00
2023-05-19T03:38:23.551Z,272.00
2023-05-19T03:39:23.547Z,296.00
2023-05-19T03:40:23.524Z,320.00
2023-05-19T03:41:23.515Z,348.00
2023-05-19T03:42:23.578Z,376.00
2023-05-19T03:43:23.482Z,408.00
2023-05-19T03:44:23.473Z,436.00
2023-05-19T03:45:23.473Z,468.00
2023-05-19T03:46:23.559Z,504.00
2023-05-19T03:47:23.460Z,540.00
2023-05-19T03:48:23.419Z,576.00
2023-05-19T03:49:23.407Z,612.00
2023-05-19T03:50:23.414Z,652.00
2023-05-19T03:51:23.409Z,692.00
2023-05-19T03:52:23.367Z,732.00
2023-05-19T03:53:23.352Z,776.00
2023-05-19T03:54:23.353Z,816.00
2023-05-19T03:55:23.327Z,864.00
2023-05-19T03:56:23.311Z,912.00
2023-05-19T03:57:23.298Z,960.00
2023-05-19T03:58:23.312Z,1008.00
2023-05-19T03:59:23.276Z,1052.00
2023-05-19T04:00:23.259Z,1104.00
2023-05-19T04:01:23.262Z,1152.00
2023-05-19T04:02:23.293Z,1200.00
2023-05-19T04:03:23.340Z,1252.00
2023-05-19T04:04:23.255Z,1300.00
2023-05-19T04:05:23.198Z,1352.00
2023-05-19T04:06:23.187Z,1400.00
2023-05-19T04:07:23.174Z,1456.00
2023-05-19T04:08:23.157Z,1508.00
2023-05-19T04:09:23.139Z,1560.00
2023-05-19T04:10:23.140Z,1608.00
2023-05-19T04:11:23.121Z,1664.00
2023-05-19T04:12:23.105Z,1716.00
2023-05-19T04:13:23.088Z,1772.00
2023-05-19T04:14:23.103Z,1828.00
2023-05-19T04:15:23.068Z,1880.00
2023-05-19T04:16:23.111Z,1932.00
2023-05-19T04:17:23.066Z,1988.00
2023-05-19T04:18:23.027Z,2040.00
2023-05-19T04:19:23.113Z,2096.00
2023-05-19T04:20:22.998Z,2156.00
2023-05-19T04:21:22.990Z,2208.00
2023-05-19T04:22:22.971Z,2264.00
2023-05-19T04:23:22.965Z,2320.00
2023-05-19T04:24:22.949Z,2384.00
2023-05-19T04:25:22.936Z,2440.00
2023-05-19T04:26:22.923Z,2500.00
2023-05-19T04:27:22.907Z,2608.00
2023-05-19T04:28:22.901Z,2940.00
2023-05-19T04:29:22.885Z,3376.00
2023-05-19T04:30:22.936Z,3740.00
2023-05-19T04:31:22.919Z,3868.00
2023-05-19T04:32:22.864Z,3928.00
2023-05-19T04:33:22.833Z,3984.00
2023-05-19T04:34:22.826Z,4052.00
2023-05-19T04:35:22.803Z,4092.00
2023-05-19T04:36:22.794Z,4116.00
2023-05-19T04:37:22.781Z,4124.00
2023-05-19T04:38:22.775Z,4160.00
2023-05-19T04:39:22.759Z,4168.00
2023-05-19T04:40:22.747Z,4196.00
2023-05-19T04:41:22.728Z,4240.00
2023-05-19T04:42:22.718Z,4288.00
2023-05-19T04:43:22.708Z,4384.00
2023-05-19T04:44:22.697Z,4556.00
2023-05-19T04:45:22.678Z,4680.00
2023-05-19T04:46:22.701Z,4780.00
2023-05-19T04:47:22.686Z,4852.00
2023-05-19T04:48:22.647Z,4900.00
2023-05-19T04:49:22.644Z,4940.00
2023-05-19T04:50:22.618Z,5012.00
2023-05-19T04:51:22.602Z,5048.00
2023-05-19T04:52:22.600Z,5148.00
2023-05-19T04:53:22.574Z,5108.00
2023-05-19T04:54:22.569Z,5076.00
2023-05-19T04:55:22.550Z,5224.00
2023-05-19T04:56:22.539Z,5320.00
2023-05-19T04:57:22.522Z,5320.00
2023-05-19T04:58:22.514Z,5036.00
2023-05-19T04:59:22.496Z,5148.00
2023-05-19T05:00:22.503Z,5452.00
2023-05-19T05:01:22.651Z,5708.00
2023-05-19T05:02:22.685Z,5620.00
2023-05-19T05:03:22.579Z,5472.00
2023-05-19T05:04:22.434Z,5276.00
2023-05-19T05:05:22.432Z,5020.00
2023-05-19T05:06:22.400Z,4864.00
2023-05-19T05:07:22.396Z,4768.00
2023-05-19T05:08:22.375Z,4848.00
2023-05-19T05:09:22.373Z,4928.00
2023-05-19T05:10:22.354Z,4884.00
2023-05-19T05:11:22.347Z,4952.00
2023-05-19T05:12:22.323Z,5068.00
2023-05-19T05:13:22.355Z,5236.00
2023-05-19T05:14:22.296Z,5632.00
2023-05-19T05:15:22.293Z,5964.00
2023-05-19T05:16:22.346Z,6464.00
2023-05-19T05:17:22.354Z,6820.00
2023-05-19T05:18:22.273Z,7044.00
2023-05-19T05:19:22.355Z,7140.00
2023-05-19T05:20:22.220Z,7144.00
2023-05-19T05:21:22.202Z,7188.00
2023-05-19T05:22:22.190Z,7272.00
2023-05-19T05:23:22.182Z,7428.00
2023-05-19T05:24:22.168Z,7600.00
2023-05-19T05:25:22.153Z,7676.00
2023-05-19T05:26:22.140Z,7592.00
2023-05-19T05:27:22.138Z,7252.00
2023-05-19T05:28:22.113Z,7444.00
2023-05-19T05:29:22.101Z,7720.00
2023-05-19T05:31:22.072Z,8100.00
2023-05-19T05:32:22.123Z,8224.00
2023-05-19T05:33:22.178Z,8232.00
2023-05-19T05:34:22.178Z,8492.00
2023-05-19T05:35:22.040Z,8160.00
2023-05-19T05:36:22.058Z,8188.00
2023-05-19T05:37:22.042Z,8552.00
2023-05-19T05:38:22.007Z,8556.00
2023-05-19T05:39:21.979Z,8604.00
2023-05-19T05:40:21.956Z,8556.00
2023-05-19T05:41:21.953Z,9112.00
2023-05-19T05:42:21.931Z,9732.00
2023-05-19T05:43:21.918Z,9816.00
2023-05-19T05:44:21.904Z,9396.00
2023-05-19T05:45:21.890Z,9360.00
2023-05-19T05:46:21.884Z,9100.00
2023-05-19T05:47:21.873Z,9056.00
2023-05-19T05:48:21.852Z,9312.00
2023-05-19T05:49:21.843Z,9896.00
2023-05-19T05:50:21.862Z,10900.00
2023-05-19T05:51:21.818Z,11560.00
2023-05-19T05:52:21.803Z,10860.00
2023-05-19T05:53:21.790Z,10356.00
2023-05-19T05:54:21.775Z,10260.00
2023-05-19T05:55:21.765Z,10616.00
2023-05-19T05:56:21.750Z,10848.00
2023-05-19T05:57:21.738Z,10952.00
2023-05-19T05:58:21.723Z,12240.00
2023-05-19T05:59:21.715Z,13132.00
2023-05-19T06:01:21.691Z,12368.00
2023-05-19T06:02:21.701Z,12364.00
2023-05-19T06:03:21.853Z,13064.00
2023-05-19T06:04:21.658Z,12788.00
2023-05-19T06:05:21.696Z,12428.00
2023-05-19T06:06:21.681Z,12580.00
2023-05-19T06:07:21.641Z,12328.00
2023-05-19T06:08:21.597Z,13868.00
2023-05-19T06:09:21.587Z,17024.00
2023-05-19T06:10:21.590Z,17920.00
2023-05-19T06:11:21.560Z,15168.00
2023-05-19T06:12:21.545Z,15328.00
2023-05-19T06:13:21.550Z,17792.00
2023-05-19T06:14:21.519Z,18208.00
2023-05-19T06:15:21.520Z,16800.00
2023-05-19T06:16:21.566Z,14496.00
2023-05-19T06:17:21.481Z,11840.00
2023-05-19T06:18:21.471Z,11520.00
2023-05-19T06:19:21.514Z,11684.00
2023-05-19T06:20:21.499Z,11692.00
2023-05-19T06:21:21.431Z,11652.00
2023-05-19T06:22:21.461Z,11692.00
2023-05-19T06:23:21.417Z,11640.00
2023-05-19T06:24:21.390Z,11596.00
2023-05-19T06:25:21.380Z,11580.00
2023-05-19T06:26:21.366Z,11572.00
2023-05-19T06:27:21.356Z,11448.00
2023-05-19T06:28:21.349Z,11452.00
2023-05-19T06:29:21.340Z,11472.00
2023-05-19T06:30:21.327Z,11556.00
2023-05-19T06:31:21.327Z,11696.00
2023-05-19T06:32:21.404Z,11736.00
2023-05-19T06:33:21.280Z,11984.00
2023-05-19T06:34:21.265Z,12656.00
2023-05-19T06:36:21.239Z,16112.00
2023-05-19T06:37:21.228Z,17248.00
2023-05-19T06:38:21.249Z,17376.00
2023-05-19T06:39:21.205Z,18080.00
2023-05-19T06:40:21.194Z,18752.00
2023-05-19T06:41:21.178Z,18720.00
2023-05-19T06:42:21.166Z,19552.00
2023-05-19T06:43:21.157Z,19712.00
2023-05-19T06:44:21.290Z,20224.00
2023-05-19T06:45:21.126Z,20256.00
2023-05-19T06:46:21.141Z,20992.00
2023-05-19T06:47:21.102Z,21344.00
2023-05-19T06:48:21.082Z,21568.00
2023-05-19T06:49:21.074Z,21792.00
2023-05-19T06:50:21.060Z,22016.00
2023-05-19T06:51:21.049Z,22816.00
2023-05-19T06:52:21.034Z,23072.00
2023-05-19T06:53:21.024Z,23232.00
2023-05-19T06:54:21.039Z,23360.00
2023-05-19T06:55:21.000Z,22400.00
2023-05-19T06:56:20.983Z,21440.00
2023-05-19T06:57:20.972Z,21888.00
2023-05-19T06:58:20.958Z,20448.00
2023-05-19T06:59:20.953Z,19456.00
2023-05-19T07:00:23.782Z,20192.00
2023-05-19T07:01:20.964Z,19712.00
2023-05-19T07:02:20.915Z,18048.00
2023-05-19T07:03:20.993Z,19584.00
2023-05-19T07:04:20.880Z,20576.00
2023-05-19T07:05:20.879Z,20960.00
2023-05-19T07:06:20.858Z,22752.00
2023-05-19T07:07:20.844Z,24800.00
2023-05-19T07:08:20.843Z,25856.00
2023-05-19T07:09:20.820Z,26240.00
2023-05-19T07:10:20.833Z,27328.00
2023-05-19T07:11:20.793Z,27104.00
2023-05-19T07:12:20.778Z,29152.00
2023-05-19T07:13:20.767Z,28096.00
2023-05-19T07:14:20.753Z,26976.00
2023-05-19T07:15:20.744Z,29056.00
2023-05-19T07:16:20.769Z,29536.00
2023-05-19T07:17:20.729Z,29536.00
2023-05-19T07:18:20.704Z,30944.00
2023-05-19T07:19:20.827Z,31648.00
2023-05-19T07:20:20.680Z,31456.00
2023-05-19T07:21:20.673Z,31872.00
2023-05-19T07:22:20.654Z,33536.00
2023-05-19T07:23:20.652Z,33312.00
2023-05-19T07:24:20.628Z,33856.00
2023-05-19T07:25:20.617Z,32800.00
2023-05-19T07:26:20.631Z,32480.00
2023-05-19T07:27:20.590Z,31680.00
2023-05-19T07:28:20.576Z,33280.00
2023-05-19T07:29:20.568Z,33856.00
2023-05-19T07:30:20.549Z,35584.00
2023-05-19T07:31:20.558Z,38432.00
2023-05-19T07:32:20.647Z,36416.00
2023-05-19T07:33:20.518Z,36512.00
2023-05-19T07:34:20.496Z,35936.00
2023-05-19T07:35:20.544Z,33856.00
2023-05-19T07:36:20.480Z,32672.00
2023-05-19T07:37:20.463Z,33824.00
2023-05-19T07:38:20.457Z,36192.00
2023-05-19T07:39:20.467Z,36288.00
2023-05-19T07:40:20.424Z,37504.00
2023-05-19T07:41:20.412Z,36736.00
2023-05-19T07:42:20.458Z,36736.00
2023-05-19T07:43:20.387Z,38688.00
2023-05-19T07:44:20.373Z,38144.00
2023-05-19T07:45:20.365Z,32768.00
2023-05-19T07:46:20.501Z,35200.00
2023-05-19T07:47:20.332Z,34112.00
2023-05-19T07:48:20.320Z,34176.00
2023-05-19T07:49:20.311Z,36256.00
2023-05-19T07:50:20.298Z,39392.00
2023-05-19T07:51:20.285Z,37888.00
2023-05-19T07:52:20.274Z,36160.00
2023-05-19T07:53:20.273Z,36544.00
2023-05-19T07:54:20.245Z,35872.00
2023-05-19T07:55:20.233Z,36576.00
2023-05-19T07:56:20.221Z,36640.00
2023-05-19T07:57:20.212Z,38048.00
2023-05-19T07:58:20.224Z,38624.00
2023-05-19T07:59:20.190Z,37504.00
2023-05-19T08:00:20.166Z,38656.00
2023-05-19T08:01:20.163Z,38272.00
2023-05-19T08:02:20.177Z,37984.00
2023-05-19T08:03:20.291Z,39200.00
2023-05-19T08:04:20.196Z,39360.00
2023-05-19T08:05:20.108Z,38400.00
2023-05-19T08:06:20.094Z,39200.00
2023-05-19T08:07:20.084Z,39840.00
2023-05-19T08:08:20.074Z,42336.00
2023-05-19T08:09:20.058Z,40864.00
2023-05-19T08:10:20.058Z,43104.00
2023-05-19T08:11:20.044Z,45536.00
2023-05-19T08:12:20.022Z,44224.00
2023-05-19T08:13:20.008Z,33376.00
2023-05-19T08:14:20.033Z,42784.00
2023-05-19T08:15:19.990Z,42432.00
2023-05-19T08:16:20.012Z,43840.00
2023-05-19T08:17:19.968Z,36608.00
2023-05-19T08:18:19.956Z,33472.00
2023-05-19T08:19:19.994Z,46240.00
2023-05-19T08:20:19.924Z,45408.00
2023-05-19T08:21:19.921Z,44544.00
2023-05-19T08:22:19.899Z,46560.00
2023-05-19T08:23:19.896Z,49056.00
2023-05-19T08:24:19.882Z,50080.00
2023-05-19T08:25:19.911Z,46560.00
2023-05-19T08:26:19.855Z,44672.00
2023-05-19T08:27:19.841Z,46368.00
2023-05-19T08:28:19.830Z,48640.00
2023-05-19T08:29:19.821Z,48864.00
2023-05-19T08:30:19.845Z,48544.00
2023-05-19T08:31:19.824Z,48416.00
2023-05-19T08:32:19.798Z,47648.00
2023-05-19T08:33:19.776Z,49536.00
2023-05-19T08:34:19.761Z,50688.00
2023-05-19T08:35:19.748Z,47712.00
2023-05-19T08:36:19.732Z,47008.00
2023-05-19T08:37:19.723Z,50752.00
2023-05-19T08:38:19.709Z,51616.00
2023-05-19T08:39:19.709Z,49696.00
2023-05-19T08:40:19.683Z,48896.00
2023-05-19T08:41:19.674Z,49888.00
2023-05-19T08:42:19.664Z,51552.00
2023-05-19T08:43:19.653Z,51808.00
2023-05-19T08:44:19.638Z,51616.00
2023-05-19T08:45:19.627Z,53792.00
2023-05-19T08:46:19.656Z,53888.00
2023-05-19T08:47:19.604Z,52704.00
2023-05-19T08:48:19.598Z,51584.00
2023-05-19T08:49:19.579Z,52416.00
2023-05-19T08:50:19.561Z,54528.00
2023-05-19T08:51:19.552Z,54688.00
2023-05-19T08:52:19.552Z,52192.00
2023-05-19T08:53:32.408Z,50080.00
2023-05-19T08:54:19.516Z,49696.00
2023-05-19T08:55:19.503Z,51520.00
2023-05-19T08:56:19.491Z,51712.00
2023-05-19T08:57:19.481Z,50624.00
2023-05-19T08:58:19.465Z,47872.00
2023-05-19T08:59:19.458Z,44288.00
2023-05-19T09:00:19.440Z,42560.00
2023-05-19T09:01:19.505Z,32832.00
2023-05-19T09:02:19.451Z,35424.00
2023-05-19T09:04:19.551Z,37216.00
2023-05-19T09:05:19.449Z,40480.00
2023-05-19T09:06:19.392Z,40288.00
2023-05-19T09:07:19.358Z,42624.00
2023-05-19T09:08:19.345Z,44544.00
2023-05-19T09:09:19.335Z,45376.00
2023-05-19T09:10:19.315Z,46720.00
2023-05-19T09:11:19.310Z,47552.00
2023-05-19T09:12:19.295Z,49344.00
2023-05-19T09:13:19.282Z,49344.00
2023-05-19T09:14:19.269Z,49792.00
2023-05-19T09:15:19.262Z,47968.00
2023-05-19T09:16:19.294Z,49024.00
2023-05-19T09:17:19.232Z,51840.00
2023-05-19T09:18:19.258Z,53952.00
2023-05-19T09:19:19.267Z,50944.00
2023-05-19T09:20:19.210Z,49152.00
2023-05-19T09:21:19.187Z,50496.00
2023-05-19T09:22:19.183Z,51520.00
2023-05-19T09:23:19.158Z,52768.00
2023-05-19T09:24:19.158Z,53952.00
2023-05-19T09:25:19.174Z,53856.00
2023-05-19T09:26:19.125Z,54272.00
2023-05-19T09:27:19.110Z,54112.00
2023-05-19T09:28:19.100Z,53440.00
2023-05-19T09:29:19.087Z,53856.00
2023-05-19T09:30:19.115Z,55040.00
2023-05-19T09:31:19.069Z,55104.00
2023-05-19T09:32:19.096Z,55104.00
2023-05-19T09:33:19.086Z,54944.00
2023-05-19T09:34:19.059Z,52768.00
2023-05-19T09:35:19.012Z,51488.00
2023-05-19T09:36:19.006Z,54432.00
2023-05-19T09:37:18.990Z,56640.00
2023-05-19T09:38:18.976Z,56768.00
2023-05-19T09:39:18.962Z,57312.00
2023-05-19T09:40:18.981Z,59168.00
2023-05-19T09:41:18.937Z,60000.00
2023-05-19T09:42:18.929Z,58592.00
2023-05-19T09:43:18.913Z,56128.00
2023-05-19T09:44:18.907Z,54464.00
2023-05-19T09:45:18.891Z,53696.00
2023-05-19T09:46:18.892Z,51360.00
2023-05-19T09:47:18.860Z,49984.00
2023-05-19T09:48:18.854Z,52480.00
2023-05-19T09:49:18.841Z,53312.00
2023-05-19T09:50:18.891Z,52000.00
2023-05-19T09:51:18.821Z,51584.00
2023-05-19T09:52:18.806Z,52128.00
2023-05-19T09:53:18.800Z,51296.00
2023-05-19T09:54:18.779Z,51072.00
2023-05-19T09:55:18.778Z,51296.00
2023-05-19T09:56:18.753Z,49856.00
2023-05-19T09:57:18.747Z,50016.00
2023-05-19T09:58:18.744Z,52896.00
2023-05-19T09:59:18.718Z,54976.00
2023-05-19T10:00:18.702Z,53920.00
2023-05-19T10:02:18.701Z,52672.00
2023-05-19T10:03:18.672Z,54816.00
2023-05-19T10:04:18.659Z,56480.00
2023-05-19T10:05:18.726Z,55424.00
2023-05-19T10:06:18.675Z,56576.00
2023-05-19T10:07:18.628Z,59040.00
2023-05-19T10:08:18.610Z,59680.00
2023-05-19T10:09:18.594Z,59616.00
2023-05-19T10:10:18.585Z,59680.00
2023-05-19T10:11:18.581Z,57888.00
2023-05-19T10:12:18.557Z,55488.00
2023-05-19T10:13:18.548Z,55168.00
2023-05-19T10:14:18.530Z,55136.00
2023-05-19T10:15:19.612Z,53408.00
2023-05-19T10:16:18.526Z,51744.00
2023-05-19T10:17:18.495Z,50816.00
2023-05-19T10:18:18.483Z,53344.00
2023-05-19T10:19:18.513Z,55840.00
2023-05-19T10:20:18.454Z,56832.00
2023-05-19T10:21:18.451Z,56576.00
2023-05-19T10:22:18.459Z,58144.00
2023-05-19T10:23:18.418Z,57504.00
2023-05-19T10:24:18.403Z,54496.00
2023-05-19T10:25:18.397Z,54464.00
2023-05-19T10:26:18.386Z,57312.00
2023-05-19T10:27:18.373Z,58272.00
2023-05-19T10:28:18.355Z,56736.00
2023-05-19T10:29:18.343Z,55232.00
2023-05-19T10:30:18.437Z,56864.00
2023-05-19T10:31:18.319Z,57600.00
2023-05-19T10:32:18.367Z,56480.00
2023-05-19T10:33:18.414Z,57408.00
2023-05-19T10:34:18.283Z,54400.00
2023-05-19T10:35:18.279Z,56352.00
2023-05-19T10:36:18.257Z,54816.00
2023-05-19T10:37:18.242Z,55072.00
2023-05-19T10:38:18.268Z,54080.00
2023-05-19T10:39:18.231Z,54688.00
2023-05-19T10:40:18.213Z,55040.00
2023-05-19T10:41:18.195Z,54304.00
2023-05-19T10:42:18.188Z,53312.00
2023-05-19T10:43:18.178Z,55072.00
2023-05-19T10:44:18.177Z,55296.00
2023-05-19T10:45:18.165Z,53024.00
2023-05-19T10:46:18.165Z,52672.00
2023-05-19T10:47:18.182Z,54720.00
2023-05-19T10:48:18.123Z,55360.00
2023-05-19T10:49:18.105Z,54944.00
2023-05-19T10:50:18.096Z,54816.00
2023-05-19T10:51:18.085Z,55136.00
2023-05-19T10:52:18.067Z,54656.00
2023-05-19T10:53:18.090Z,53760.00
2023-05-19T10:54:18.178Z,56224.00
2023-05-19T10:55:18.067Z,58528.00
2023-05-19T10:56:18.018Z,59072.00
2023-05-19T10:57:18.009Z,58816.00
2023-05-19T10:58:17.994Z,58208.00
2023-05-19T10:59:17.981Z,56192.00
2023-05-19T11:00:17.970Z,56032.00
2023-05-19T11:01:18.019Z,55904.00
2023-05-19T11:02:18.066Z,55200.00
2023-05-19T11:03:17.937Z,54176.00
2023-05-19T11:04:17.950Z,53280.00
2023-05-19T11:05:17.909Z,53408.00
2023-05-19T11:06:17.896Z,54656.00
2023-05-19T11:07:17.884Z,56096.00
2023-05-19T11:08:17.890Z,56096.00
2023-05-19T11:09:17.991Z,57344.00
2023-05-19T11:10:17.874Z,60064.00
2023-05-19T11:11:17.838Z,60128.00
2023-05-19T11:12:17.823Z,55072.00
2023-05-19T11:13:17.809Z,40544.00
2023-05-19T11:14:17.800Z,43264.00
2023-05-19T11:15:17.782Z,44032.00
2023-05-19T11:16:17.777Z,34624.00
2023-05-19T11:17:17.761Z,32512.00
2023-05-19T11:18:17.766Z,34560.00
2023-05-19T11:19:17.800Z,36544.00
2023-05-19T11:20:17.734Z,40704.00
2023-05-19T11:21:17.730Z,43232.00
2023-05-19T11:22:17.708Z,58176.00
2023-05-19T11:23:17.751Z,58368.00
2023-05-19T11:24:17.701Z,57312.00
2023-05-19T11:25:17.667Z,58336.00
2023-05-19T11:26:17.676Z,39424.00
2023-05-19T11:27:17.662Z,43968.00
2023-05-19T11:28:17.656Z,49120.00
2023-05-19T11:29:17.616Z,48800.00
2023-05-19T11:30:17.620Z,59840.00
2023-05-19T11:31:17.586Z,59904.00
2023-05-19T11:32:17.599Z,59840.00
2023-05-19T11:33:17.594Z,60480.00
2023-05-19T11:34:17.552Z,61696.00
2023-05-19T11:35:17.544Z,44384.00
2023-05-19T11:36:17.546Z,34720.00
2023-05-19T11:37:17.538Z,50080.00
2023-05-19T11:38:17.503Z,55712.00
2023-05-19T11:39:17.501Z,54624.00
2023-05-19T11:40:17.496Z,55456.00
2023-05-19T11:41:18.879Z,44576.00
2023-05-19T11:42:17.513Z,41120.00
2023-05-19T11:43:17.453Z,38656.00
2023-05-19T11:44:17.429Z,58880.00
2023-05-19T11:45:17.416Z,55936.00
2023-05-19T11:46:17.422Z,56800.00
2023-05-19T11:47:17.389Z,38592.00
2023-05-19T11:48:17.570Z,44992.00
2023-05-19T11:49:17.368Z,41056.00
2023-05-19T11:50:17.357Z,37600.00
2023-05-19T11:51:17.344Z,41056.00
2023-05-19T11:52:17.343Z,37472.00
2023-05-19T11:53:17.319Z,40832.00
2023-05-19T11:54:17.307Z,55104.00
2023-05-19T11:55:17.295Z,41888.00
2023-05-19T11:56:17.282Z,55936.00
2023-05-19T11:57:17.277Z,47520.00
2023-05-19T11:58:17.650Z,45088.00
2023-05-19T11:59:17.243Z,43008.00
2023-05-19T12:00:17.244Z,34816.00
2023-05-19T12:01:17.224Z,34560.00
2023-05-19T12:02:17.239Z,35136.00
2023-05-19T12:03:17.627Z,47456.00
2023-05-19T12:04:17.182Z,53088.00
2023-05-19T12:05:17.278Z,52384.00
2023-05-19T12:06:17.243Z,52064.00
2023-05-19T12:08:17.133Z,33184.00
2023-05-19T12:09:17.119Z,24320.00
2023-05-19T12:10:17.106Z,21568.00
2023-05-19T12:11:18.204Z,21408.00
2023-05-19T12:12:17.172Z,22528.00
2023-05-19T12:13:17.073Z,26112.00
2023-05-19T12:14:17.098Z,24480.00
2023-05-19T12:15:17.074Z,22784.00
2023-05-19T12:16:17.076Z,34592.00
2023-05-19T12:17:17.076Z,50368.00
2023-05-19T12:18:17.007Z,49536.00
2023-05-19T12:19:17.046Z,48416.00
2023-05-19T12:20:16.992Z,27648.00